createdAt,value
2022-08-25T00:01:23.344Z,18.21
2022-08-25T00:03:55.270Z,18.06
2022-08-25T00:06:24.847Z,18.05
2022-08-25T00:08:52.550Z,18.05
2022-08-25T00:11:22.315Z,18.04
2022-08-25T00:13:57.743Z,18.06
2022-08-25T00:16:26.267Z,18.05
2022-08-25T00:18:56.722Z,18.02
2022-08-25T00:21:25.065Z,17.86
2022-08-25T00:23:52.876Z,17.73
2022-08-25T00:26:20.805Z,17.77
2022-08-25T00:28:48.491Z,17.78
2022-08-25T00:31:20.095Z,17.77
2022-08-25T00:33:48.899Z,17.74
2022-08-25T00:36:17.023Z,17.74
2022-08-25T00:38:46.269Z,17.70
2022-08-25T00:41:17.209Z,17.64
2022-08-25T00:43:47.636Z,17.61
2022-08-25T00:46:19.848Z,17.56
2022-08-25T00:48:48.294Z,17.53
2022-08-25T00:51:18.530Z,17.49
2022-08-25T00:53:46.273Z,17.47
2022-08-25T00:56:14.499Z,17.40
2022-08-25T00:58:43.098Z,17.34
2022-08-25T01:01:11.049Z,17.32
2022-08-25T01:03:40.115Z,17.30
2022-08-25T01:06:07.950Z,17.27
2022-08-25T01:08:35.592Z,17.23
2022-08-25T01:11:06.022Z,17.15
2022-08-25T01:13:39.040Z,16.99
2022-08-25T01:16:07.198Z,16.91
2022-08-25T01:18:46.756Z,16.89
2022-08-25T01:21:16.545Z,16.86
2022-08-25T01:23:44.268Z,16.85
2022-08-25T01:26:15.036Z,16.87
2022-08-25T01:29:03.917Z,16.86
2022-08-25T01:31:32.526Z,16.84
2022-08-25T01:34:00.416Z,16.83
2022-08-25T01:36:30.507Z,16.82
2022-08-25T01:38:58.554Z,16.73
2022-08-25T01:41:32.674Z,16.72
2022-08-25T01:44:00.494Z,16.65
2022-08-25T01:46:28.833Z,16.60
2022-08-25T01:48:56.559Z,16.61
2022-08-25T01:51:26.482Z,16.60
2022-08-25T01:53:55.514Z,16.61
2022-08-25T01:56:23.226Z,16.55
2022-08-25T01:58:51.041Z,16.51
2022-08-25T02:01:21.718Z,16.52
2022-08-25T02:03:51.893Z,16.54
2022-08-25T02:06:28.827Z,16.52
2022-08-25T02:09:01.079Z,16.43
2022-08-25T02:11:29.523Z,16.40
2022-08-25T02:13:59.144Z,16.41
2022-08-25T02:16:29.077Z,16.39
2022-08-25T02:18:57.057Z,16.39
2022-08-25T02:21:24.706Z,16.38
2022-08-25T02:23:53.336Z,16.30
2022-08-25T02:26:23.030Z,16.30
2022-08-25T02:28:52.302Z,16.28
2022-08-25T02:31:22.415Z,16.26
2022-08-25T02:33:50.257Z,16.22
2022-08-25T02:36:18.031Z,16.20
2022-08-25T02:38:46.213Z,16.18
2022-08-25T02:41:15.557Z,16.17
2022-08-25T02:43:45.243Z,16.16
2022-08-25T02:46:13.402Z,16.14
2022-08-25T02:48:41.540Z,16.10
2022-08-25T02:51:11.169Z,16.06
2022-08-25T02:53:40.489Z,16.04
2022-08-25T02:56:08.803Z,16.01
2022-08-25T02:58:37.083Z,15.99
2022-08-25T03:01:07.376Z,15.89
2022-08-25T03:03:39.353Z,15.78
2022-08-25T03:06:08.242Z,15.71
2022-08-25T03:08:36.634Z,15.63
2022-08-25T03:11:05.213Z,15.64
2022-08-25T03:13:33.025Z,15.66
2022-08-25T03:16:01.335Z,15.62
2022-08-25T03:18:32.314Z,15.56
2022-08-25T03:21:00.193Z,15.53
2022-08-25T03:23:27.860Z,15.55
2022-08-25T03:26:13.139Z,15.54
2022-08-25T03:28:41.771Z,15.59
2022-08-25T03:31:10.358Z,15.60
2022-08-25T03:33:40.155Z,15.57
2022-08-25T03:36:09.587Z,15.56
2022-08-25T03:38:38.221Z,15.60
2022-08-25T03:41:14.521Z,15.66
2022-08-25T03:43:42.639Z,15.67
2022-08-25T03:46:10.462Z,15.71
2022-08-25T03:48:39.494Z,15.72
2022-08-25T03:51:07.444Z,15.67
2022-08-25T03:53:35.103Z,15.66
2022-08-25T03:56:02.746Z,15.69
2022-08-25T03:58:30.390Z,15.65
2022-08-25T04:01:00.336Z,15.53
2022-08-25T04:03:28.262Z,15.50
2022-08-25T04:05:57.534Z,15.51
2022-08-25T04:08:25.214Z,15.52
2022-08-25T04:10:52.872Z,15.52
2022-08-25T04:13:20.529Z,15.30
2022-08-25T04:15:48.156Z,15.15
2022-08-25T04:18:15.985Z,15.11
2022-08-25T04:20:46.718Z,15.08
2022-08-25T04:23:15.995Z,15.01
2022-08-25T04:25:43.760Z,15.04
2022-08-25T04:28:14.131Z,15.09
2022-08-25T04:30:43.610Z,15.11
2022-08-25T04:33:11.210Z,15.17
2022-08-25T04:35:39.058Z,15.22
2022-08-25T04:38:08.746Z,15.26
2022-08-25T04:40:37.763Z,15.27
2022-08-25T04:43:05.454Z,15.27
2022-08-25T04:45:33.187Z,15.24
2022-08-25T04:48:01.358Z,15.26
2022-08-25T04:50:29.640Z,15.26
2022-08-25T04:52:57.927Z,15.28
2022-08-25T04:55:25.578Z,15.31
2022-08-25T04:57:54.560Z,15.24
2022-08-25T05:00:22.349Z,15.22
2022-08-25T05:02:50.209Z,15.25
2022-08-25T05:05:18.103Z,15.29
2022-08-25T05:07:46.758Z,15.31
2022-08-25T05:10:14.546Z,15.35
2022-08-25T05:12:42.208Z,15.42
2022-08-25T05:15:29.945Z,15.48
2022-08-25T05:17:57.965Z,15.54
2022-08-25T05:20:25.982Z,15.57
2022-08-25T05:22:53.600Z,15.63
2022-08-25T05:25:21.294Z,15.67
2022-08-25T05:27:48.982Z,15.67
2022-08-25T05:30:18.215Z,15.73
2022-08-25T05:32:45.977Z,15.82
2022-08-25T05:35:13.679Z,15.91
2022-08-25T05:37:41.322Z,15.99
2022-08-25T05:40:10.378Z,16.03
2022-08-25T05:42:38.202Z,16.09
2022-08-25T05:45:06.407Z,16.13
2022-08-25T05:47:35.426Z,16.18
2022-08-25T05:50:03.085Z,16.25
2022-08-25T05:52:30.840Z,16.28
2022-08-25T05:54:58.530Z,16.35
2022-08-25T05:57:26.223Z,16.41
2022-08-25T05:59:53.851Z,16.48
2022-08-25T06:02:39.018Z,16.57
2022-08-25T06:05:08.769Z,16.64
2022-08-25T06:07:36.775Z,16.76
2022-08-25T06:10:04.807Z,16.88
2022-08-25T06:12:33.951Z,16.98
2022-08-25T06:15:02.609Z,17.10
2022-08-25T06:17:30.298Z,17.18
2022-08-25T06:19:57.977Z,17.26
2022-08-25T06:22:26.981Z,17.35
2022-08-25T06:24:55.675Z,17.44
2022-08-25T06:27:23.294Z,17.61
2022-08-25T06:29:50.883Z,17.52
2022-08-25T06:32:23.689Z,17.65
2022-08-25T06:34:51.391Z,17.83
2022-08-25T06:37:21.230Z,17.98
2022-08-25T06:39:52.492Z,18.06
2022-08-25T06:42:20.203Z,18.27
2022-08-25T06:44:47.846Z,18.34
2022-08-25T06:47:16.042Z,18.50
2022-08-25T06:49:44.099Z,18.68
2022-08-25T06:52:12.387Z,18.82
2022-08-25T06:54:40.550Z,19.04
2022-08-25T06:57:09.939Z,19.21
2022-08-25T06:59:38.076Z,19.36
2022-08-25T07:02:09.582Z,19.57
2022-08-25T07:04:37.857Z,19.69
2022-08-25T07:07:05.645Z,19.76
2022-08-25T07:09:36.278Z,19.88
2022-08-25T07:12:07.416Z,19.95
2022-08-25T07:14:36.919Z,20.09
2022-08-25T07:17:10.472Z,20.31
2022-08-25T07:19:41.003Z,20.35
2022-08-25T07:22:09.401Z,20.56
2022-08-25T07:24:37.182Z,20.89
2022-08-25T07:27:05.303Z,21.13
2022-08-25T07:29:33.995Z,20.99
2022-08-25T07:32:04.278Z,21.12
2022-08-25T07:37:48.786Z,21.42
2022-08-25T07:40:19.727Z,21.69
2022-08-25T07:42:47.552Z,21.94
2022-08-25T07:45:15.574Z,22.08
2022-08-25T07:47:52.072Z,22.26
2022-08-25T07:50:20.241Z,22.13
2022-08-25T07:52:52.266Z,22.27
2022-08-25T07:55:22.867Z,22.53
2022-08-25T07:57:55.463Z,22.68
2022-08-25T08:00:27.479Z,22.00
2022-08-25T08:02:56.738Z,22.43
2022-08-25T08:05:25.163Z,22.86
2022-08-25T08:07:52.837Z,22.89
2022-08-25T08:13:10.062Z,22.32
2022-08-25T08:15:38.647Z,22.83
2022-08-25T08:18:07.646Z,23.11
2022-08-25T08:20:42.642Z,23.15
2022-08-25T08:23:11.187Z,23.34
2022-08-25T08:25:38.860Z,22.91
2022-08-25T08:28:07.314Z,22.48
2022-08-25T08:30:36.505Z,22.64
2022-08-25T08:33:10.093Z,23.11
2022-08-25T08:35:40.945Z,23.32
2022-08-25T08:38:14.507Z,23.45
2022-08-25T08:41:09.337Z,23.54
2022-08-25T08:43:37.338Z,23.44
2022-08-25T08:46:07.504Z,23.61
2022-08-25T08:48:45.118Z,23.99
2022-08-25T08:51:20.638Z,24.32
2022-08-25T08:53:57.365Z,24.56
2022-08-25T08:56:30.934Z,24.83
2022-08-25T08:59:05.671Z,25.01
2022-08-25T09:01:36.232Z,25.14
2022-08-25T09:04:10.366Z,24.92
2022-08-25T09:06:42.708Z,24.92
2022-08-25T09:09:13.631Z,25.12
2022-08-25T09:11:51.736Z,25.19
2022-08-25T09:14:30.639Z,25.46
2022-08-25T09:17:02.498Z,25.20
2022-08-25T09:19:44.661Z,25.42
2022-08-25T09:22:35.549Z,25.50
2022-08-25T09:25:10.369Z,25.63
2022-08-25T09:27:42.817Z,25.68
2022-08-25T09:30:12.620Z,25.65
2022-08-25T09:32:42.596Z,25.79
2022-08-25T09:35:21.476Z,25.99
2022-08-25T09:38:01.428Z,26.17
2022-08-25T09:40:30.840Z,26.19
2022-08-25T09:43:00.317Z,26.33
2022-08-25T09:45:35.933Z,26.56
2022-08-25T09:48:04.717Z,26.39
2022-08-25T09:50:34.865Z,26.54
2022-08-25T09:53:18.578Z,26.70
2022-08-25T09:55:48.376Z,26.81
2022-08-25T09:58:19.542Z,26.99
2022-08-25T10:01:03.101Z,27.38
2022-08-25T10:03:34.316Z,27.04
2022-08-25T10:06:07.436Z,27.18
2022-08-25T10:08:56.099Z,27.38
2022-08-25T10:11:35.431Z,27.54
2022-08-25T10:14:05.743Z,27.32
2022-08-25T10:16:36.516Z,27.51
2022-08-25T10:19:08.386Z,27.49
2022-08-25T10:21:36.509Z,27.71
2022-08-25T10:24:06.717Z,27.82
2022-08-25T10:26:42.995Z,27.93
2022-08-25T10:29:24.195Z,28.11
2022-08-25T10:31:57.895Z,28.01
2022-08-25T10:34:44.768Z,28.22
2022-08-25T10:37:19.167Z,28.23
2022-08-25T10:39:56.048Z,27.87
2022-08-25T10:42:31.593Z,27.73
2022-08-25T10:45:28.325Z,27.66
2022-08-25T10:48:23.061Z,28.04
2022-08-25T10:50:56.471Z,28.21
2022-08-25T10:53:30.084Z,28.34
2022-08-25T10:56:09.527Z,28.45
2022-08-25T10:59:01.458Z,28.64
2022-08-25T11:01:43.662Z,28.57
2022-08-25T11:04:15.609Z,28.59
2022-08-25T11:06:52.630Z,28.51
2022-08-25T11:09:23.576Z,28.80
2022-08-25T11:11:56.933Z,28.78
2022-08-25T11:14:32.648Z,29.02
2022-08-25T11:17:07.739Z,29.18
2022-08-25T11:19:37.942Z,29.22
2022-08-25T11:22:09.941Z,29.19
2022-08-25T11:24:54.226Z,29.17
2022-08-25T11:27:24.792Z,29.06
2022-08-25T11:30:01.799Z,29.23
2022-08-25T11:32:33.353Z,29.37
2022-08-25T11:35:02.422Z,29.68
2022-08-25T11:37:31.011Z,29.61
2022-08-25T11:40:16.863Z,29.15
2022-08-25T11:43:13.414Z,29.06
2022-08-25T11:45:54.215Z,29.09
2022-08-25T11:48:32.184Z,29.01
2022-08-25T11:51:03.032Z,29.34
2022-08-25T11:53:34.555Z,29.66
2022-08-25T11:56:04.557Z,29.49
2022-08-25T11:58:40.634Z,29.59
2022-08-25T12:01:11.789Z,29.02
2022-08-25T12:03:53.286Z,29.41
2022-08-25T12:06:28.337Z,29.51
2022-08-25T12:09:17.929Z,29.88
2022-08-25T12:11:51.949Z,29.99
2022-08-25T12:17:26.023Z,29.90
2022-08-25T12:19:59.294Z,29.90
2022-08-25T12:23:00.117Z,29.81
2022-08-25T12:25:49.491Z,29.62
2022-08-25T12:28:40.007Z,29.53
2022-08-25T12:31:17.428Z,29.33
2022-08-25T12:33:56.588Z,29.26
2022-08-25T12:36:30.994Z,29.21
2022-08-25T12:39:16.082Z,29.52
2022-08-25T12:41:54.353Z,29.75
2022-08-25T12:44:38.199Z,29.69
2022-08-25T12:47:28.015Z,29.89
2022-08-25T12:50:28.597Z,30.06
2022-08-25T12:53:01.980Z,30.40
2022-08-25T12:55:29.894Z,30.48
2022-08-25T12:58:00.845Z,30.22
2022-08-25T13:00:30.756Z,30.29
2022-08-25T13:03:27.033Z,30.63
2022-08-25T13:06:37.813Z,30.70
2022-08-25T13:09:34.347Z,30.27
2022-08-25T13:12:10.069Z,30.13
2022-08-25T13:14:39.858Z,29.87
2022-08-25T13:17:09.678Z,30.00
2022-08-25T13:19:38.390Z,29.94
2022-08-25T13:22:16.022Z,30.09
2022-08-25T13:24:47.356Z,30.08
2022-08-25T13:27:22.840Z,29.81
2022-08-25T13:29:52.906Z,29.86
2022-08-25T13:32:31.928Z,29.77
2022-08-25T13:35:19.873Z,29.76
2022-08-25T13:37:48.369Z,29.58
2022-08-25T13:40:18.073Z,29.77
2022-08-25T13:42:52.962Z,29.88
2022-08-25T13:45:25.222Z,29.96
2022-08-25T13:47:56.093Z,30.17
2022-08-25T13:50:33.546Z,30.26
2022-08-25T13:53:04.694Z,30.37
2022-08-25T13:55:50.459Z,30.25
2022-08-25T13:58:24.680Z,30.22
2022-08-25T14:01:22.696Z,30.13
2022-08-25T14:03:53.863Z,30.04
2022-08-25T14:06:23.854Z,30.08
2022-08-25T14:09:09.383Z,29.91
2022-08-25T14:11:43.930Z,30.13
2022-08-25T14:14:14.681Z,30.30
2022-08-25T14:16:49.132Z,30.16
2022-08-25T14:19:20.181Z,29.74
2022-08-25T14:21:49.613Z,29.84
2022-08-25T14:24:23.270Z,29.95
2022-08-25T14:26:54.611Z,30.10
2022-08-25T14:29:22.952Z,29.98
2022-08-25T14:31:52.454Z,30.20
2022-08-25T14:34:22.681Z,30.14
2022-08-25T14:36:52.402Z,30.06
2022-08-25T14:39:21.486Z,30.07
2022-08-25T14:41:53.170Z,30.23
2022-08-25T14:44:21.951Z,30.07
2022-08-25T14:46:52.334Z,30.15
2022-08-25T14:49:25.011Z,30.12
2022-08-25T14:51:53.316Z,29.39
2022-08-25T14:54:24.922Z,28.76
2022-08-25T14:56:53.556Z,28.91
2022-08-25T14:59:21.356Z,29.25
2022-08-25T15:01:50.000Z,29.00
2022-08-25T15:04:20.258Z,29.17
2022-08-25T15:06:52.447Z,28.73
2022-08-25T15:09:21.109Z,28.82
2022-08-25T15:11:52.207Z,29.10
2022-08-25T15:14:28.512Z,29.17
2022-08-25T15:17:01.204Z,29.16
2022-08-25T15:19:29.576Z,28.88
2022-08-25T15:21:58.241Z,28.95
2022-08-25T15:24:28.476Z,29.04
2022-08-25T15:26:59.913Z,29.18
2022-08-25T15:29:30.637Z,29.26
2022-08-25T15:31:59.756Z,29.26
2022-08-25T15:34:27.651Z,29.16
2022-08-25T15:36:56.614Z,29.13
2022-08-25T15:39:24.298Z,28.92
2022-08-25T15:41:52.865Z,28.59
2022-08-25T15:44:24.136Z,28.78
2022-08-25T15:46:54.698Z,28.82
2022-08-25T15:49:24.279Z,28.90
2022-08-25T15:51:52.834Z,28.93
2022-08-25T15:54:22.647Z,28.95
2022-08-25T15:56:50.347Z,28.94
2022-08-25T15:59:21.819Z,28.96
2022-08-25T16:01:53.429Z,28.85
2022-08-25T16:04:22.062Z,28.80
2022-08-25T16:06:51.832Z,28.71
2022-08-25T16:09:23.048Z,28.68
2022-08-25T16:11:55.866Z,28.56
2022-08-25T16:14:27.786Z,28.50
2022-08-25T16:16:58.422Z,28.40
2022-08-25T16:19:27.245Z,28.38
2022-08-25T16:21:54.942Z,28.37
2022-08-25T16:24:22.593Z,28.33
2022-08-25T16:26:51.821Z,28.32
2022-08-25T16:29:20.373Z,28.23
2022-08-25T16:31:53.485Z,28.46
2022-08-25T16:34:24.509Z,28.29
2022-08-25T16:36:52.383Z,28.17
2022-08-25T16:39:20.081Z,28.13
2022-08-25T16:41:48.413Z,28.16
2022-08-25T16:44:19.546Z,28.11
2022-08-25T16:46:54.391Z,28.11
2022-08-25T16:49:24.307Z,28.08
2022-08-25T16:51:56.962Z,28.01
2022-08-25T16:54:40.044Z,27.81
2022-08-25T16:57:07.731Z,27.76
2022-08-25T16:59:35.433Z,27.63
2022-08-25T17:02:06.421Z,27.59
2022-08-25T17:04:34.199Z,27.41
2022-08-25T17:07:02.154Z,27.24
2022-08-25T17:09:30.109Z,27.23
2022-08-25T17:11:57.829Z,27.22
2022-08-25T17:14:25.682Z,27.18
2022-08-25T17:16:55.114Z,27.14
2022-08-25T17:19:25.055Z,27.05
2022-08-25T17:21:54.424Z,26.88
2022-08-25T17:24:29.560Z,26.83
2022-08-25T17:27:01.452Z,26.78
2022-08-25T17:29:29.769Z,26.62
2022-08-25T17:31:58.502Z,26.54
2022-08-25T17:34:29.082Z,26.56
2022-08-25T17:36:57.472Z,26.56
2022-08-25T17:39:26.537Z,26.36
2022-08-25T17:41:54.417Z,26.37
2022-08-25T17:44:22.090Z,26.33
2022-08-25T17:46:50.758Z,26.32
2022-08-25T17:49:19.528Z,26.25
2022-08-25T17:51:48.621Z,26.18
2022-08-25T17:54:17.290Z,26.15
2022-08-25T17:56:44.964Z,26.14
2022-08-25T17:59:13.716Z,26.13
2022-08-25T18:01:42.149Z,26.12
2022-08-25T18:04:17.419Z,26.10
2022-08-25T18:06:45.785Z,26.07
2022-08-25T18:09:14.796Z,25.98
2022-08-25T18:11:42.935Z,25.88
2022-08-25T18:14:11.307Z,25.80
2022-08-25T18:16:39.510Z,25.73
2022-08-25T18:19:09.670Z,25.65
2022-08-25T18:21:37.749Z,25.59
2022-08-25T18:24:05.818Z,25.54
2022-08-25T18:26:35.218Z,25.44
2022-08-25T18:29:02.934Z,25.23
2022-08-25T18:31:30.588Z,25.06
2022-08-25T18:33:58.491Z,24.99
2022-08-25T18:36:26.188Z,24.91
2022-08-25T18:39:11.584Z,24.81
2022-08-25T18:41:45.092Z,24.73
2022-08-25T18:44:12.944Z,24.63
2022-08-25T18:46:45.499Z,24.58
2022-08-25T18:49:15.802Z,24.47
2022-08-25T18:51:44.631Z,24.33
2022-08-25T18:54:23.398Z,24.21
2022-08-25T18:56:53.062Z,24.02
2022-08-25T18:59:23.725Z,24.08
2022-08-25T19:01:52.505Z,24.17
2022-08-25T19:04:20.365Z,24.13
2022-08-25T19:06:55.925Z,24.03
2022-08-25T19:09:23.670Z,23.93
2022-08-25T19:11:54.782Z,23.87
2022-08-25T19:14:22.470Z,23.92
2022-08-25T19:16:51.746Z,23.84
2022-08-25T19:19:20.276Z,23.82
2022-08-25T19:21:48.178Z,23.84
2022-08-25T19:24:16.895Z,23.81
2022-08-25T19:26:45.654Z,23.71
2022-08-25T19:29:17.196Z,23.54
2022-08-25T19:31:46.539Z,23.54
2022-08-25T19:34:19.140Z,23.52
2022-08-25T19:36:48.479Z,23.48
2022-08-25T19:39:16.647Z,23.44
2022-08-25T19:41:46.207Z,23.35
2022-08-25T19:44:15.249Z,23.31
2022-08-25T19:46:45.221Z,23.31
2022-08-25T19:49:15.117Z,23.30
2022-08-25T19:51:44.906Z,23.24
2022-08-25T19:54:14.573Z,23.18
2022-08-25T19:56:53.653Z,23.12
2022-08-25T19:59:25.055Z,22.96
2022-08-25T20:01:52.888Z,22.94
2022-08-25T20:04:20.984Z,22.89
2022-08-25T20:06:52.040Z,22.83
2022-08-25T20:09:35.787Z,22.74
2022-08-25T20:12:08.506Z,22.70
2022-08-25T20:14:37.584Z,22.67
2022-08-25T20:17:23.016Z,22.63
2022-08-25T20:19:54.158Z,22.51
2022-08-25T20:22:25.674Z,22.48
2022-08-25T20:24:56.026Z,22.47
2022-08-25T20:27:28.934Z,22.49
2022-08-25T20:29:57.940Z,22.46
2022-08-25T20:32:26.121Z,22.45
2022-08-25T20:34:56.944Z,22.44
2022-08-25T20:37:25.736Z,22.35
2022-08-25T20:39:54.030Z,22.33
2022-08-25T20:42:21.800Z,22.28
2022-08-25T20:44:49.442Z,22.27
2022-08-25T20:47:20.625Z,22.14
2022-08-25T20:49:48.909Z,22.18
2022-08-25T20:52:19.002Z,22.19
2022-08-25T20:54:49.636Z,22.11
2022-08-25T20:57:18.805Z,22.12
2022-08-25T20:59:53.589Z,22.08
2022-08-25T21:02:22.934Z,22.06
2022-08-25T21:04:50.753Z,22.09
2022-08-25T21:07:18.481Z,22.09
2022-08-25T21:09:46.360Z,22.12
2022-08-25T21:12:14.086Z,22.06
2022-08-25T21:14:42.707Z,22.01
2022-08-25T21:17:12.893Z,21.96
2022-08-25T21:19:42.118Z,21.98
2022-08-25T21:22:10.838Z,22.00
2022-08-25T21:24:38.657Z,21.97
2022-08-25T21:27:07.229Z,21.90
2022-08-25T21:29:35.140Z,21.81
2022-08-25T21:32:03.326Z,21.82
2022-08-25T21:34:31.638Z,21.82
2022-08-25T21:37:00.629Z,21.83
2022-08-25T21:39:31.931Z,21.86
2022-08-25T21:42:00.568Z,21.84
2022-08-25T21:44:29.025Z,21.79
2022-08-25T21:46:57.134Z,21.78
2022-08-25T21:49:25.575Z,21.76
2022-08-25T21:52:00.859Z,21.74
2022-08-25T21:54:30.318Z,21.64
2022-08-25T21:56:59.981Z,21.44
2022-08-25T21:59:29.669Z,21.35
2022-08-25T22:01:58.037Z,21.28
2022-08-25T22:04:26.500Z,21.22
2022-08-25T22:06:54.142Z,21.23
2022-08-25T22:09:22.163Z,21.20
2022-08-25T22:11:53.276Z,21.17
2022-08-25T22:14:23.361Z,21.10
2022-08-25T22:16:51.987Z,21.07
2022-08-25T22:19:19.784Z,20.92
2022-08-25T22:21:47.442Z,20.82
2022-08-25T22:24:16.030Z,20.75
2022-08-25T22:26:47.512Z,20.77
2022-08-25T22:29:25.832Z,20.77
2022-08-25T22:31:54.238Z,20.73
2022-08-25T22:34:30.227Z,20.69
2022-08-25T22:36:59.623Z,20.66
2022-08-25T22:39:27.801Z,20.65
2022-08-25T22:41:55.585Z,20.58
2022-08-25T22:44:25.458Z,20.53
2022-08-25T22:46:53.316Z,20.57
2022-08-25T22:49:21.837Z,20.58
2022-08-25T22:51:49.941Z,20.52
2022-08-25T22:54:18.727Z,20.53
2022-08-25T22:56:46.382Z,20.58
2022-08-25T22:59:15.301Z,20.58
2022-08-25T23:01:45.524Z,20.56
2022-08-25T23:04:14.627Z,20.48
2022-08-25T23:06:42.969Z,20.45
2022-08-25T23:09:11.418Z,20.43
2022-08-25T23:11:39.701Z,20.39
2022-08-25T23:14:11.075Z,20.40
2022-08-25T23:16:39.623Z,20.42
2022-08-25T23:19:13.721Z,20.43
2022-08-25T23:21:59.604Z,20.30
2022-08-25T23:24:29.903Z,20.22
2022-08-25T23:26:58.433Z,20.21
2022-08-25T23:29:27.809Z,20.17
2022-08-25T23:31:56.446Z,20.15
2022-08-25T23:34:25.901Z,20.01
2022-08-25T23:36:53.736Z,19.98
2022-08-25T23:39:22.470Z,19.98
2022-08-25T23:41:50.272Z,20.01
2022-08-25T23:44:18.591Z,19.95
2022-08-25T23:46:47.464Z,19.95
2022-08-25T23:49:18.474Z,19.98
2022-08-25T23:51:48.651Z,19.98
2022-08-25T23:54:17.186Z,19.98
2022-08-25T23:56:51.686Z,19.92
2022-08-25T23:59:23.998Z,19.91
